Time;durP1;ratioP1;P1;durP2;ratioP2;P2;SDS_P1;SDS_P2;PMS_P1;PMS_P2;Temp;Humidity;BMP_temperature;BMP_pressure;BME280_temperature;BME280_humidity;BME280_pressure;Samples;Min_cycle;Max_cycle;Signal;HPM_P1;HPM_P2
2023/09/14 00:04:38;;;;;;;;;;;24.00;58.30;;;;;;10358893;28;20381;-50
2023/09/14 00:09:40;;;;;;;;;;;24.00;58.30;;;;;;10362990;28;19933;-47
2023/09/14 00:14:41;;;;;;;;;;;24.00;58.20;;;;;;10376094;28;20408;-46
2023/09/14 00:19:43;;;;;;;;;;;23.90;58.20;;;;;;10371656;28;20752;-45
2023/09/14 00:24:45;;;;;;;;;;;23.90;58.20;;;;;;10362190;28;19934;-45
2023/09/14 00:29:47;;;;;;;;;;;23.90;58.20;;;;;;10375265;28;20005;-46
2023/09/14 00:34:48;;;;;;;;;;;23.90;58.00;;;;;;10366848;28;19992;-46
2023/09/14 00:39:50;;;;;;;;;;;23.90;58.30;;;;;;10387026;28;19933;-47
2023/09/14 00:44:52;;;;;;;;;;;23.90;58.40;;;;;;10377154;28;20557;-46
2023/09/14 00:49:54;;;;;;;;;;;23.90;58.20;;;;;;10381675;28;19981;-45
2023/09/14 00:54:55;;;;;;;;;;;23.80;57.80;;;;;;10395251;28;19934;-46
2023/09/14 00:59:57;;;;;;;;;;;23.80;58.10;;;;;;10395711;28;20072;-43
2023/09/14 01:05:03;;;;;;;;;;;23.80;58.20;;;;;;10388330;28;20472;-44
2023/09/14 01:10:05;;;;;;;;;;;23.80;58.10;;;;;;10387963;28;19937;-44
2023/09/14 01:15:10;;;;;;;;;;;23.80;58.10;;;;;;10374470;28;19999;-47
2023/09/14 01:20:30;;;;;;;;;;;23.80;58.20;;;;;;10402239;28;19933;-47
2023/09/14 01:25:35;;;;;;;;;;;23.70;58.20;;;;;;10389736;28;20683;-49
2023/09/14 01:30:37;;;;;;;;;;;23.70;58.10;;;;;;10376865;28;19934;-47
2023/09/14 01:35:54;;;;;;;;;;;23.70;59.00;;;;;;10392729;28;19937;-43
2023/09/14 01:40:56;;;;;;;;;;;23.70;58.10;;;;;;10384474;28;19933;-44
2023/09/14 01:45:57;;;;;;;;;;;23.70;58.20;;;;;;10396988;28;20352;-49
2023/09/14 01:50:59;;;;;;;;;;;23.60;58.00;;;;;;10396641;28;20364;-43
2023/09/14 01:56:01;;;;;;;;;;;23.70;59.00;;;;;;10387570;28;20252;-45
2023/09/14 02:01:03;;;;;;;;;;;23.60;57.80;;;;;;10375392;28;20261;-47
2023/09/14 02:06:04;;;;;;;;;;;23.70;57.70;;;;;;10368873;28;20028;-43
2023/09/14 02:11:06;;;;;;;;;;;23.70;57.80;;;;;;10381077;28;20381;-47
2023/09/14 02:16:08;;;;;;;;;;;23.70;57.90;;;;;;10391755;28;19933;-43
2023/09/14 02:21:10;;;;;;;;;;;23.60;57.60;;;;;;10380713;28;19933;-43
2023/09/14 02:26:13;;;;;;;;;;;23.60;57.60;;;;;;10391825;28;19941;-46
2023/09/14 02:31:15;;;;;;;;;;;23.60;57.60;;;;;;10380741;28;20020;-45
2023/09/14 02:36:17;;;;;;;;;;;23.60;57.50;;;;;;10353528;28;19941;-43
2023/09/14 02:41:18;;;;;;;;;;;23.60;57.30;;;;;;10387456;28;19934;-46
2023/09/14 02:46:20;;;;;;;;;;;23.70;57.30;;;;;;10374025;28;19938;-44
2023/09/14 02:51:22;;;;;;;;;;;23.70;57.30;;;;;;10377534;28;19934;-64
2023/09/14 02:56:24;;;;;;;;;;;23.60;57.30;;;;;;10380838;28;20323;-44
2023/09/14 03:01:28;;;;;;;;;;;23.60;57.10;;;;;;10367182;28;20084;-44
2023/09/14 03:06:29;;;;;;;;;;;23.60;57.30;;;;;;10377766;28;19934;-44
2023/09/14 03:11:31;;;;;;;;;;;23.60;57.20;;;;;;10375370;28;19933;-48
2023/09/14 03:16:33;;;;;;;;;;;23.60;57.20;;;;;;10382293;28;20761;-48
2023/09/14 03:21:34;;;;;;;;;;;23.60;57.10;;;;;;10367048;28;19934;-44
2023/09/14 03:26:36;;;;;;;;;;;23.50;57.00;;;;;;10366459;28;19933;-46
2023/09/14 03:31:38;;;;;;;;;;;23.50;56.90;;;;;;10381392;28;20277;-45
2023/09/14 03:36:39;;;;;;;;;;;23.50;57.10;;;;;;10366705;28;20555;-45
2023/09/14 03:41:41;;;;;;;;;;;23.50;57.00;;;;;;10367081;28;20020;-47
2023/09/14 03:46:43;;;;;;;;;;;23.50;57.00;;;;;;10367317;28;19934;-45
2023/09/14 03:51:45;;;;;;;;;;;23.50;57.00;;;;;;10377685;28;20412;-46
2023/09/14 03:56:47;;;;;;;;;;;23.40;56.90;;;;;;10373655;28;19965;-47
2023/09/14 04:01:48;;;;;;;;;;;23.40;56.90;;;;;;10365349;28;19933;-47
2023/09/14 04:06:50;;;;;;;;;;;23.40;56.90;;;;;;10374996;28;20041;-46
2023/09/14 04:11:52;;;;;;;;;;;23.40;56.90;;;;;;10387464;28;20063;-44
2023/09/14 04:16:57;;;;;;;;;;;23.40;56.80;;;;;;10376544;28;19934;-45
2023/09/14 04:21:59;;;;;;;;;;;23.40;56.70;;;;;;10380291;28;19934;-44
2023/09/14 04:27:01;;;;;;;;;;;23.30;56.50;;;;;;10373853;28;19934;-46
2023/09/14 04:32:04;;;;;;;;;;;23.40;56.70;;;;;;10379724;28;20524;-43
2023/09/14 04:37:06;;;;;;;;;;;23.40;56.70;;;;;;10378442;28;19933;-47
2023/09/14 04:42:07;;;;;;;;;;;23.40;56.70;;;;;;10366166;28;19980;-46
2023/09/14 04:52:24;;;;;;;;;;;23.30;56.50;;;;;;10374697;28;19940;-42
2023/09/14 04:57:26;;;;;;;;;;;23.30;56.40;;;;;;10399284;28;19933;-42
2023/09/14 05:02:28;;;;;;;;;;;23.30;57.20;;;;;;10410786;28;19940;-41
2023/09/14 05:07:30;;;;;;;;;;;23.30;57.40;;;;;;10394926;28;20048;-46
2023/09/14 05:12:31;;;;;;;;;;;23.30;57.50;;;;;;10398919;28;20423;-44
2023/09/14 05:17:33;;;;;;;;;;;23.30;57.60;;;;;;10392686;28;19934;-45
2023/09/14 05:22:35;;;;;;;;;;;23.30;57.50;;;;;;10391471;28;19937;-43
2023/09/14 05:27:37;;;;;;;;;;;23.30;57.60;;;;;;10386242;28;19944;-41
2023/09/14 05:32:40;;;;;;;;;;;23.30;57.40;;;;;;10381371;28;20316;-42
2023/09/14 05:37:41;;;;;;;;;;;23.30;57.60;;;;;;10391785;28;20088;-41
2023/09/14 05:42:43;;;;;;;;;;;23.30;57.50;;;;;;10410539;28;20604;-40
2023/09/14 05:47:45;;;;;;;;;;;23.30;57.60;;;;;;10382835;28;20393;-44
2023/09/14 05:52:47;;;;;;;;;;;23.20;57.30;;;;;;10390657;28;19934;-42
2023/09/14 05:57:49;;;;;;;;;;;23.20;57.30;;;;;;10387628;28;20766;-43
2023/09/14 06:02:51;;;;;;;;;;;23.20;57.10;;;;;;10402061;28;20080;-43
2023/09/14 06:07:53;;;;;;;;;;;23.10;57.20;;;;;;10392628;28;19933;-42
2023/09/14 06:12:55;;;;;;;;;;;23.10;57.90;;;;;;10394579;28;20869;-41
2023/09/14 06:17:57;;;;;;;;;;;23.10;58.30;;;;;;10390097;28;19933;-42
2023/09/14 06:22:59;;;;;;;;;;;23.20;58.00;;;;;;10407071;28;19965;-45
2023/09/14 06:28:01;;;;;;;;;;;23.10;58.40;;;;;;10389517;28;19933;-44
2023/09/14 06:33:02;;;;;;;;;;;23.10;58.50;;;;;;10382323;28;19977;-45
2023/09/14 06:38:04;;;;;;;;;;;23.20;58.40;;;;;;10392130;28;20047;-41
2023/09/14 06:43:06;;;;;;;;;;;23.20;58.30;;;;;;10379695;28;20656;-42
2023/09/14 06:48:08;;;;;;;;;;;23.20;58.30;;;;;;10397280;28;19984;-43
2023/09/14 06:53:10;;;;;;;;;;;23.20;58.10;;;;;;10390275;28;19941;-43
2023/09/14 06:58:13;;;;;;;;;;;23.20;57.80;;;;;;10391111;28;19973;-45
2023/09/14 07:03:15;;;;;;;;;;;23.10;57.40;;;;;;10390684;28;19941;-43
2023/09/14 07:08:18;;;;;;;;;;;23.10;57.20;;;;;;10398564;28;20001;-43
2023/09/14 07:13:20;;;;;;;;;;;23.10;57.00;;;;;;10402918;28;19940;-42
2023/09/14 07:18:26;;;;;;;;;;;23.10;56.90;;;;;;10392874;28;20904;-47
2023/09/14 07:23:29;;;;;;;;;;;23.10;56.70;;;;;;10390515;28;19933;-45
2023/09/14 07:28:31;;;;;;;;;;;23.10;56.70;;;;;;10392162;28;21075;-43
2023/09/14 07:33:33;;;;;;;;;;;23.00;56.60;;;;;;10391105;28;19933;-44
2023/09/14 07:38:35;;;;;;;;;;;23.00;56.30;;;;;;10402704;28;19976;-44
2023/09/14 07:43:37;;;;;;;;;;;23.00;56.50;;;;;;10390420;28;19933;-44
2023/09/14 07:48:39;;;;;;;;;;;22.90;56.20;;;;;;10393987;28;19941;-45
2023/09/14 07:53:40;;;;;;;;;;;22.90;56.40;;;;;;10387640;28;20308;-47
2023/09/14 07:58:42;;;;;;;;;;;22.90;56.40;;;;;;10391028;28;19940;-43
2023/09/14 08:03:44;;;;;;;;;;;22.90;56.30;;;;;;10390752;28;19941;-43
2023/09/14 08:08:48;;;;;;;;;;;22.90;56.40;;;;;;10391380;28;19981;-42
2023/09/14 08:13:49;;;;;;;;;;;22.90;56.60;;;;;;10377618;28;20508;-43
2023/09/14 08:18:52;;;;;;;;;;;22.90;56.60;;;;;;10394081;28;19941;-45
2023/09/14 08:23:53;;;;;;;;;;;22.80;56.60;;;;;;10398039;28;20034;-47
2023/09/14 08:28:55;;;;;;;;;;;22.80;56.50;;;;;;10389803;28;19940;-42
2023/09/14 08:33:57;;;;;;;;;;;22.80;56.70;;;;;;10389698;28;20404;-41
2023/09/14 08:38:59;;;;;;;;;;;22.80;56.70;;;;;;10394959;28;20049;-42
2023/09/14 08:44:19;;;;;;;;;;;22.80;56.70;;;;;;10395410;28;19964;-43
2023/09/14 08:49:21;;;;;;;;;;;22.80;56.80;;;;;;10397077;28;19934;-42
2023/09/14 08:54:23;;;;;;;;;;;22.90;56.70;;;;;;10396433;28;19941;-43
2023/09/14 08:59:25;;;;;;;;;;;22.90;56.60;;;;;;10400244;28;20332;-42
2023/09/14 09:04:27;;;;;;;;;;;22.90;56.60;;;;;;10388809;28;19940;-43
2023/09/14 09:09:29;;;;;;;;;;;22.90;56.60;;;;;;10391773;28;19933;-47
2023/09/14 09:14:31;;;;;;;;;;;22.90;56.30;;;;;;10388878;28;19964;-46
2023/09/14 09:19:45;;;;;;;;;;;23.00;56.40;;;;;;10401744;28;19941;-43
2023/09/14 09:24:47;;;;;;;;;;;23.00;55.80;;;;;;10387187;28;20009;-45
2023/09/14 09:29:59;;;;;;;;;;;23.10;55.60;;;;;;10391567;28;20366;-42
2023/09/14 09:35:18;;;;;;;;;;;23.10;55.70;;;;;;10379592;28;20838;-44
2023/09/14 09:40:24;;;;;;;;;;;23.20;55.40;;;;;;10422838;28;20028;-41
2023/09/14 09:45:26;;;;;;;;;;;23.20;55.10;;;;;;10414530;28;19964;-42
2023/09/14 09:50:28;;;;;;;;;;;23.30;56.10;;;;;;10416371;28;20024;-45
2023/09/14 09:55:31;;;;;;;;;;;23.40;54.80;;;;;;10394419;28;20649;-43
2023/09/14 10:00:38;;;;;;;;;;;23.40;54.80;;;;;;10391029;28;20393;-43
2023/09/14 10:05:40;;;;;;;;;;;23.40;54.80;;;;;;10404395;28;19934;-45
2023/09/14 10:10:50;;;;;;;;;;;23.50;54.70;;;;;;10393995;28;19934;-43
2023/09/14 10:15:53;;;;;;;;;;;23.60;54.80;;;;;;10402966;28;19934;-44
2023/09/14 10:20:56;;;;;;;;;;;23.50;54.70;;;;;;10400420;28;20067;-47
2023/09/14 10:25:58;;;;;;;;;;;23.60;54.40;;;;;;10402822;28;19933;-42
2023/09/14 10:31:00;;;;;;;;;;;23.60;54.60;;;;;;10399786;28;19933;-43
2023/09/14 10:36:03;;;;;;;;;;;23.60;54.50;;;;;;10389836;28;19934;-45
2023/09/14 10:41:05;;;;;;;;;;;23.70;54.50;;;;;;10398440;28;19933;-43
2023/09/14 10:46:11;;;;;;;;;;;23.60;54.30;;;;;;10394361;28;19956;-46
2023/09/14 10:51:13;;;;;;;;;;;23.60;54.20;;;;;;10407036;28;19937;-49
2023/09/14 10:56:33;;;;;;;;;;;23.60;54.50;;;;;;10401033;28;20012;-43
2023/09/14 11:01:48;;;;;;;;;;;23.60;54.60;;;;;;10400322;28;20446;-46
2023/09/14 11:06:54;;;;;;;;;;;23.60;54.50;;;;;;10403555;28;19933;-46
2023/09/14 11:12:18;;;;;;;;;;;23.60;54.60;;;;;;10390809;28;34302;-44
2023/09/14 11:17:26;;;;;;;;;;;23.60;54.40;;;;;;10383205;28;19933;-43
2023/09/14 11:22:28;;;;;;;;;;;23.70;54.50;;;;;;10391010;28;19941;-44
2023/09/14 11:27:32;;;;;;;;;;;23.60;54.50;;;;;;10391002;28;20319;-46
2023/09/14 11:32:37;;;;;;;;;;;23.60;54.50;;;;;;10395295;28;20317;-42
2023/09/14 11:37:40;;;;;;;;;;;23.60;54.30;;;;;;10389725;28;19940;-45
2023/09/14 11:43:06;;;;;;;;;;;23.50;54.30;;;;;;10393791;28;19933;-43
2023/09/14 11:48:16;;;;;;;;;;;23.50;54.70;;;;;;10395895;28;19933;-43
2023/09/14 11:53:22;;;;;;;;;;;23.60;55.00;;;;;;10393203;28;19933;-48
2023/09/14 11:58:24;;;;;;;;;;;23.50;54.80;;;;;;10392140;28;19933;-44
2023/09/14 12:03:27;;;;;;;;;;;23.50;54.70;;;;;;10384678;28;19940;-44
2023/09/14 12:08:30;;;;;;;;;;;23.60;55.00;;;;;;10405216;28;20042;-46
2023/09/14 12:13:31;;;;;;;;;;;23.60;54.80;;;;;;10400949;28;19933;-43
2023/09/14 12:18:40;;;;;;;;;;;23.60;54.60;;;;;;10391733;28;19933;-43
2023/09/14 12:23:44;;;;;;;;;;;23.60;54.60;;;;;;10398300;28;19973;-43
2023/09/14 12:28:57;;;;;;;;;;;23.60;54.90;;;;;;10400793;28;20026;-45
2023/09/14 12:33:59;;;;;;;;;;;23.60;54.90;;;;;;10397070;28;19934;-46
2023/09/14 12:39:01;;;;;;;;;;;23.60;55.00;;;;;;10401019;28;20300;-49
2023/09/14 12:44:03;;;;;;;;;;;23.60;55.10;;;;;;10398183;28;19999;-47
2023/09/14 12:49:06;;;;;;;;;;;23.60;55.00;;;;;;10401398;28;20015;-46
2023/09/14 12:54:07;;;;;;;;;;;23.60;55.10;;;;;;10392901;28;19985;-45
2023/09/14 12:59:10;;;;;;;;;;;23.60;55.20;;;;;;10400513;28;19968;-44
2023/09/14 13:04:12;;;;;;;;;;;23.60;55.10;;;;;;10395022;28;19941;-42
2023/09/14 13:09:19;;;;;;;;;;;23.70;55.10;;;;;;10395495;28;20044;-44
2023/09/14 13:14:24;;;;;;;;;;;23.60;55.10;;;;;;10412378;28;19933;-44
2023/09/14 13:19:27;;;;;;;;;;;23.60;55.10;;;;;;10399574;28;20024;-43
2023/09/14 13:24:29;;;;;;;;;;;23.60;54.80;;;;;;10405699;28;19936;-43
2023/09/14 13:29:31;;;;;;;;;;;23.60;55.00;;;;;;10399133;28;20400;-43
2023/09/14 13:34:33;;;;;;;;;;;23.70;55.10;;;;;;10387752;28;20392;-43
2023/09/14 13:39:34;;;;;;;;;;;23.60;54.50;;;;;;10422738;28;20415;-43
2023/09/14 13:44:36;;;;;;;;;;;23.50;54.60;;;;;;10394174;28;20016;-43
2023/09/14 13:49:38;;;;;;;;;;;23.50;54.50;;;;;;10403727;28;19956;-45
2023/09/14 13:54:40;;;;;;;;;;;23.50;54.60;;;;;;10394529;28;19934;-43
2023/09/14 13:59:43;;;;;;;;;;;23.50;54.90;;;;;;10395119;28;20303;-45
2023/09/14 14:04:45;;;;;;;;;;;23.40;54.90;;;;;;10395242;28;19941;-43
2023/09/14 14:09:47;;;;;;;;;;;23.40;54.80;;;;;;10395613;28;19933;-42
2023/09/14 14:14:51;;;;;;;;;;;23.50;54.90;;;;;;10392207;28;20028;-42
2023/09/14 14:19:54;;;;;;;;;;;23.40;54.90;;;;;;10406506;28;19933;-46
2023/09/14 14:24:56;;;;;;;;;;;23.40;54.90;;;;;;10405033;28;20411;-42
2023/09/14 14:29:57;;;;;;;;;;;23.40;55.30;;;;;;10417615;28;20056;-42
2023/09/14 14:34:59;;;;;;;;;;;23.40;55.30;;;;;;10391696;28;19933;-42
2023/09/14 14:40:03;;;;;;;;;;;23.40;55.10;;;;;;10418799;28;19933;-43
2023/09/14 14:45:06;;;;;;;;;;;23.40;55.20;;;;;;10392738;28;19933;-45
2023/09/14 14:50:08;;;;;;;;;;;23.40;55.20;;;;;;10403759;28;20155;-44
2023/09/14 14:55:09;;;;;;;;;;;23.40;55.00;;;;;;10402993;28;19934;-44
2023/09/14 15:00:11;;;;;;;;;;;23.40;55.10;;;;;;10400141;28;19940;-43
2023/09/14 15:05:13;;;;;;;;;;;23.40;55.40;;;;;;10400068;28;20183;-42
2023/09/14 15:10:15;;;;;;;;;;;23.40;55.50;;;;;;10392921;28;20316;-43
2023/09/14 15:15:17;;;;;;;;;;;23.40;55.90;;;;;;10400120;28;19934;-45
2023/09/14 15:20:19;;;;;;;;;;;23.40;55.90;;;;;;10390696;28;19940;-43
2023/09/14 15:25:21;;;;;;;;;;;23.40;56.10;;;;;;10401956;28;19940;-42
2023/09/14 15:30:26;;;;;;;;;;;23.40;56.20;;;;;;10405397;28;20051;-43
2023/09/14 15:35:29;;;;;;;;;;;23.40;56.30;;;;;;10403465;28;20304;-42
2023/09/14 15:40:31;;;;;;;;;;;23.50;56.30;;;;;;10397954;28;19939;-41
2023/09/14 15:45:42;;;;;;;;;;;23.50;56.20;;;;;;10407145;28;20600;-44
2023/09/14 15:50:45;;;;;;;;;;;23.50;56.60;;;;;;10390737;28;20455;-44
2023/09/14 15:55:47;;;;;;;;;;;23.60;56.90;;;;;;10385656;28;19933;-45
2023/09/14 16:00:49;;;;;;;;;;;23.60;59.00;;;;;;10404774;28;19933;-44
2023/09/14 16:05:52;;;;;;;;;;;23.80;60.00;;;;;;10391002;28;20408;-43
2023/09/14 16:10:54;;;;;;;;;;;23.80;59.80;;;;;;10379986;28;20525;-42
2023/09/14 16:15:56;;;;;;;;;;;23.80;59.10;;;;;;10389854;28;19933;-42
2023/09/14 16:20:59;;;;;;;;;;;23.90;61.20;;;;;;10378792;28;19973;-46
2023/09/14 16:26:01;;;;;;;;;;;24.00;63.20;;;;;;10381354;28;19933;-42
2023/09/14 16:31:02;;;;;;;;;;;24.00;60.90;;;;;;10385048;28;19933;-44
2023/09/14 16:36:05;;;;;;;;;;;24.10;59.20;;;;;;10395275;28;19940;-42
2023/09/14 16:41:06;;;;;;;;;;;24.10;58.90;;;;;;10395448;28;20038;-42
2023/09/14 16:46:08;;;;;;;;;;;24.10;57.50;;;;;;10404713;28;19934;-42
2023/09/14 16:51:10;;;;;;;;;;;24.00;55.90;;;;;;10404531;28;19937;-45
2023/09/14 16:56:12;;;;;;;;;;;24.00;56.20;;;;;;10397118;28;20385;-42
2023/09/14 17:01:14;;;;;;;;;;;23.80;55.40;;;;;;10399045;28;20178;-43
2023/09/14 17:06:16;;;;;;;;;;;23.80;55.80;;;;;;10390806;28;19940;-44
2023/09/14 17:11:18;;;;;;;;;;;23.80;56.00;;;;;;10398052;28;19933;-44
2023/09/14 17:16:20;;;;;;;;;;;23.80;56.30;;;;;;10381928;28;19965;-44
2023/09/14 17:21:22;;;;;;;;;;;23.80;56.60;;;;;;10394418;28;20080;-46
2023/09/14 17:26:24;;;;;;;;;;;23.80;56.80;;;;;;10391895;28;19934;-47
2023/09/14 17:31:26;;;;;;;;;;;23.70;57.00;;;;;;10394658;28;20297;-44
2023/09/14 17:36:29;;;;;;;;;;;23.70;57.20;;;;;;10415359;28;20595;-43
2023/09/14 17:41:30;;;;;;;;;;;23.70;57.40;;;;;;10383955;28;19980;-43
2023/09/14 17:46:32;;;;;;;;;;;23.70;57.50;;;;;;10405666;28;20875;-43
2023/09/14 17:51:34;;;;;;;;;;;23.70;57.70;;;;;;10400143;28;19934;-42
2023/09/14 17:56:36;;;;;;;;;;;23.60;58.70;;;;;;10394930;28;19985;-42
2023/09/14 18:01:37;;;;;;;;;;;23.60;57.90;;;;;;10393407;28;20629;-41
2023/09/14 18:06:40;;;;;;;;;;;23.60;57.80;;;;;;10389613;28;19940;-42
2023/09/14 18:11:41;;;;;;;;;;;23.60;57.80;;;;;;10408066;28;19933;-42
2023/09/14 18:16:43;;;;;;;;;;;23.50;57.70;;;;;;10395811;28;19941;-41
2023/09/14 18:21:45;;;;;;;;;;;23.50;57.90;;;;;;10398762;28;20028;-42
2023/09/14 18:26:47;;;;;;;;;;;23.50;57.80;;;;;;10424436;28;19940;-44
2023/09/14 18:31:50;;;;;;;;;;;23.40;56.90;;;;;;10376560;28;20304;-41
2023/09/14 18:36:51;;;;;;;;;;;23.30;56.90;;;;;;10377310;28;20316;-44
2023/09/14 18:41:55;;;;;;;;;;;23.10;56.80;;;;;;10375651;28;19933;-42
2023/09/14 18:46:58;;;;;;;;;;;23.10;57.10;;;;;;10391866;28;19933;-41
2023/09/14 18:52:00;;;;;;;;;;;23.00;57.50;;;;;;10388444;28;19933;-47
2023/09/14 18:57:02;;;;;;;;;;;23.00;57.70;;;;;;10390706;28;19933;-44
2023/09/14 19:02:05;;;;;;;;;;;23.00;57.60;;;;;;10388065;28;19940;-43
2023/09/14 19:07:06;;;;;;;;;;;23.10;57.60;;;;;;10381552;28;19968;-43
2023/09/14 19:12:09;;;;;;;;;;;23.10;57.50;;;;;;10399632;28;19940;-45
2023/09/14 19:17:11;;;;;;;;;;;23.10;57.60;;;;;;10398287;28;19933;-42
2023/09/14 19:22:13;;;;;;;;;;;23.10;58.20;;;;;;10398477;28;19933;-44
2023/09/14 19:27:15;;;;;;;;;;;23.10;57.90;;;;;;10385750;28;19934;-44
2023/09/14 19:32:16;;;;;;;;;;;23.10;58.00;;;;;;10389756;28;20759;-44
2023/09/14 19:37:18;;;;;;;;;;;23.10;58.00;;;;;;10388219;28;19934;-42
2023/09/14 19:42:20;;;;;;;;;;;23.10;58.00;;;;;;10389556;28;20029;-42
2023/09/14 19:47:23;;;;;;;;;;;23.10;58.00;;;;;;10381642;28;20296;-46
2023/09/14 19:52:25;;;;;;;;;;;23.10;58.00;;;;;;10384227;28;19934;-42
2023/09/14 19:57:27;;;;;;;;;;;23.10;58.30;;;;;;10390886;28;19933;-41
2023/09/14 20:02:29;;;;;;;;;;;23.20;58.40;;;;;;10387675;28;19936;-44
2023/09/14 20:07:30;;;;;;;;;;;23.20;58.30;;;;;;10383068;28;19940;-42
2023/09/14 20:12:33;;;;;;;;;;;23.20;58.30;;;;;;10368501;28;19933;-45
2023/09/14 20:17:35;;;;;;;;;;;23.20;58.30;;;;;;10390856;28;20028;-44
2023/09/14 20:22:36;;;;;;;;;;;23.20;57.80;;;;;;10390954;28;20428;-41
2023/09/14 20:27:39;;;;;;;;;;;23.20;57.90;;;;;;10387648;28;19934;-42
2023/09/14 20:32:43;;;;;;;;;;;23.20;58.00;;;;;;10394603;28;19933;-43
2023/09/14 20:37:45;;;;;;;;;;;23.20;57.90;;;;;;10393283;28;19933;-42
2023/09/14 20:42:48;;;;;;;;;;;23.20;57.70;;;;;;10382166;28;20023;-43
2023/09/14 20:47:50;;;;;;;;;;;23.20;57.70;;;;;;10376214;28;19992;-43
2023/09/14 20:52:55;;;;;;;;;;;23.20;57.60;;;;;;10382157;28;20415;-42
2023/09/14 20:57:57;;;;;;;;;;;23.20;57.40;;;;;;10398739;28;19933;-41
2023/09/14 21:03:00;;;;;;;;;;;23.20;57.20;;;;;;10397778;28;19960;-45
2023/09/14 21:08:03;;;;;;;;;;;23.10;57.20;;;;;;10385692;28;19940;-42
2023/09/14 21:13:05;;;;;;;;;;;23.10;56.90;;;;;;10377908;28;19949;-43
2023/09/14 21:18:06;;;;;;;;;;;23.10;56.90;;;;;;10395836;28;19940;-41
2023/09/14 21:23:08;;;;;;;;;;;23.10;56.70;;;;;;10395630;28;19933;-43
2023/09/14 21:28:10;;;;;;;;;;;23.10;56.70;;;;;;10401481;28;19941;-46
2023/09/14 21:33:12;;;;;;;;;;;23.10;56.70;;;;;;10400684;28;19941;-50
2023/09/14 21:38:14;;;;;;;;;;;23.00;56.50;;;;;;10400493;28;20028;-42
2023/09/14 21:43:15;;;;;;;;;;;23.00;56.50;;;;;;10400511;28;19934;-44
2023/09/14 21:48:18;;;;;;;;;;;23.00;56.50;;;;;;10393281;28;20295;-42
2023/09/14 21:53:20;;;;;;;;;;;23.00;56.50;;;;;;10393662;28;19934;-44
2023/09/14 21:58:23;;;;;;;;;;;23.00;56.40;;;;;;10409865;28;19933;-41
2023/09/14 22:03:26;;;;;;;;;;;23.00;56.60;;;;;;10397500;28;19933;-42
2023/09/14 22:08:46;;;;;;;;;;;23.00;57.50;;;;;;10395744;28;19999;-46
2023/09/14 22:13:48;;;;;;;;;;;22.90;56.60;;;;;;10393982;28;20064;-42
2023/09/14 22:18:51;;;;;;;;;;;22.90;56.50;;;;;;10395949;28;20035;-46
2023/09/14 22:23:53;;;;;;;;;;;22.90;56.60;;;;;;10397296;28;20019;-42
2023/09/14 22:28:55;;;;;;;;;;;22.90;56.50;;;;;;10395824;28;19999;-41
2023/09/14 22:33:57;;;;;;;;;;;22.90;56.60;;;;;;10389827;28;20838;-44
2023/09/14 22:38:58;;;;;;;;;;;22.90;56.60;;;;;;10400201;28;20371;-45
2023/09/14 22:44:00;;;;;;;;;;;22.90;56.30;;;;;;10398465;28;19934;-44
2023/09/14 22:49:02;;;;;;;;;;;22.90;56.20;;;;;;10394154;28;19933;-44
2023/09/14 22:54:04;;;;;;;;;;;22.90;56.20;;;;;;10388929;28;19941;-41
2023/09/14 22:59:06;;;;;;;;;;;22.90;56.00;;;;;;10394971;28;20128;-41
2023/09/14 23:04:08;;;;;;;;;;;22.90;55.80;;;;;;10403623;28;20706;-40
2023/09/14 23:09:14;;;;;;;;;;;22.90;55.80;;;;;;10391158;28;19933;-41
2023/09/14 23:14:17;;;;;;;;;;;22.90;55.70;;;;;;10392026;28;20891;-41
2023/09/14 23:19:19;;;;;;;;;;;22.90;55.80;;;;;;10405407;28;19933;-42
2023/09/14 23:24:21;;;;;;;;;;;22.90;55.70;;;;;;10391917;28;19933;-43
2023/09/14 23:29:23;;;;;;;;;;;22.90;55.60;;;;;;10394177;28;19940;-43
2023/09/14 23:34:26;;;;;;;;;;;22.80;55.70;;;;;;10404767;28;19983;-41
2023/09/14 23:39:28;;;;;;;;;;;22.90;55.70;;;;;;10391661;28;20511;-43
2023/09/14 23:44:32;;;;;;;;;;;22.80;55.40;;;;;;10404415;28;19967;-41
2023/09/14 23:49:34;;;;;;;;;;;22.80;55.50;;;;;;10393150;28;19940;-46
2023/09/14 23:54:36;;;;;;;;;;;22.80;55.60;;;;;;10391248;28;19933;-42
2023/09/14 23:59:38;;;;;;;;;;;22.80;55.40;;;;;;10402922;28;20317;-44
